CSN827 RPLL-RPVE
Flight info
| Callsign | CSN827 |
|---|---|
| Flight time | 0h 46m |
| Altitude | 27000 |
| Route | VERDE2R VERDE W24 TAPER TAPER7A |
| Aircraft | A320/M-SDE3FGHIRWY/LB1 |
Departure
| Time | 2026-05-05 15:01 |
|---|---|
| Airport | Ninoy Aquino International Airport (RPLL) |
Arrival
| Time | 2026-05-05 15:47 |
|---|---|
| Airport | Godofredo P. Ramos Airport (RPVE) |
| Time | Latitude | Longitude | Altitude | Speed | Heading |
|---|---|---|---|---|---|
| 2026-05-05 14:28 | 14.51622 | 121.01572 | 42 ft | 0 kts | 46° |
| 2026-05-05 14:39 | 14.51620 | 121.01570 | 43 ft | 2 kts | 37° |
| 2026-05-05 14:39 | 14.51608 | 121.01562 | 43 ft | 2 kts | 49° |
| 2026-05-05 14:39 | 14.51598 | 121.01550 | 43 ft | 2 kts | 44° |
| 2026-05-05 14:39 | 14.51588 | 121.01540 | 43 ft | 2 kts | 46° |
| 2026-05-05 14:40 | 14.51577 | 121.01529 | 42 ft | 2 kts | 45° |
| 2026-05-05 14:40 | 14.51567 | 121.01518 | 42 ft | 2 kts | 50° |
| 2026-05-05 14:40 | 14.51561 | 121.01504 | 42 ft | 2 kts | 80° |
| 2026-05-05 14:40 | 14.51561 | 121.01488 | 42 ft | 2 kts | 105° |
| 2026-05-05 14:41 | 14.51567 | 121.01474 | 41 ft | 2 kts | 128° |
| 2026-05-05 14:41 | 14.51571 | 121.01469 | 41 ft | 1 kts | 139° |
| 2026-05-05 14:41 | 14.51574 | 121.01467 | 41 ft | 0 kts | 135° |
| 2026-05-05 14:44 | 14.51570 | 121.01471 | 41 ft | 2 kts | 136° |
| 2026-05-05 14:44 | 14.51550 | 121.01491 | 42 ft | 6 kts | 134° |
| 2026-05-05 14:45 | 14.51514 | 121.01528 | 42 ft | 9 kts | 138° |
| 2026-05-05 14:45 | 14.51462 | 121.01580 | 43 ft | 11 kts | 148° |
| 2026-05-05 14:45 | 14.51375 | 121.01575 | 44 ft | 14 kts | 160° |
| 2026-05-05 14:45 | 14.51307 | 121.01639 | 44 ft | 13 kts | 133° |
| 2026-05-05 14:46 | 14.51231 | 121.01719 | 43 ft | 16 kts | 134° |
| 2026-05-05 14:46 | 14.51147 | 121.01805 | 41 ft | 16 kts | 134° |
| 2026-05-05 14:46 | 14.51113 | 121.01840 | 40 ft | 0 kts | 137° |
| 2026-05-05 14:49 | 14.51108 | 121.01845 | 41 ft | 2 kts | 137° |
| 2026-05-05 14:49 | 14.51090 | 121.01862 | 41 ft | 6 kts | 135° |
| 2026-05-05 14:49 | 14.51043 | 121.01909 | 41 ft | 12 kts | 150° |
| 2026-05-05 14:49 | 14.50965 | 121.01850 | 39 ft | 19 kts | 240° |
| 2026-05-05 14:50 | 14.50898 | 121.01727 | 40 ft | 20 kts | 239° |
| 2026-05-05 14:50 | 14.50828 | 121.01603 | 40 ft | 20 kts | 241° |
| 2026-05-05 14:50 | 14.50760 | 121.01478 | 39 ft | 21 kts | 240° |
| 2026-05-05 14:50 | 14.50686 | 121.01344 | 36 ft | 22 kts | 239° |
| 2026-05-05 14:51 | 14.50605 | 121.01202 | 31 ft | 24 kts | 241° |
| 2026-05-05 14:51 | 14.50521 | 121.01051 | 28 ft | 25 kts | 240° |
| 2026-05-05 14:51 | 14.50433 | 121.00895 | 25 ft | 25 kts | 241° |
| 2026-05-05 14:51 | 14.50351 | 121.00746 | 26 ft | 23 kts | 240° |
| 2026-05-05 14:52 | 14.50280 | 121.00606 | 25 ft | 20 kts | 238° |
| 2026-05-05 14:52 | 14.50204 | 121.00483 | 24 ft | 20 kts | 239° |
| 2026-05-05 14:52 | 14.50143 | 121.00373 | 23 ft | 17 kts | 239° |
| 2026-05-05 14:52 | 14.50081 | 121.00262 | 21 ft | 18 kts | 241° |
| 2026-05-05 14:53 | 14.50017 | 121.00148 | 20 ft | 15 kts | 241° |
| 2026-05-05 14:53 | 14.49973 | 121.00065 | 18 ft | 0 kts | 240° |
| 2026-05-05 14:54 | 14.49972 | 121.00063 | 18 ft | 2 kts | 240° |
| 2026-05-05 14:55 | 14.49957 | 121.00036 | 18 ft | 7 kts | 240° |
| 2026-05-05 14:55 | 14.49925 | 120.99980 | 17 ft | 11 kts | 230° |
| 2026-05-05 14:55 | 14.49870 | 120.99970 | 17 ft | 0 kts | 152° |
| 2026-05-05 14:58 | 14.49860 | 120.99975 | 17 ft | 4 kts | 152° |
| 2026-05-05 14:59 | 14.49826 | 120.99994 | 17 ft | 9 kts | 148° |
| 2026-05-05 14:59 | 14.49813 | 121.00060 | 18 ft | 12 kts | 67° |
| 2026-05-05 14:59 | 14.49859 | 121.00147 | 20 ft | 15 kts | 60° |
| 2026-05-05 14:59 | 14.49873 | 121.00173 | 20 ft | 0 kts | 60° |
| 2026-05-05 15:00 | 14.50042 | 121.00479 | 23 ft | 85 kts | 62° |
| 2026-05-05 15:00 | 14.50451 | 121.01203 | 29 ft | 144 kts | 61° |
| 2026-05-05 15:01 | 14.51005 | 121.02212 | 292 ft | 169 kts | 61° |
| 2026-05-05 15:01 | 14.51553 | 121.03225 | 979 ft | 163 kts | 61° |
| 2026-05-05 15:01 | 14.52120 | 121.04210 | 1651 ft | 162 kts | 61° |
| 2026-05-05 15:01 | 14.52722 | 121.05119 | 2208 ft | 144 kts | 57° |
| 2026-05-05 15:02 | 14.53307 | 121.05987 | 2425 ft | 156 kts | 58° |
| 2026-05-05 15:02 | 14.53852 | 121.07011 | 2755 ft | 172 kts | 64° |
| 2026-05-05 15:02 | 14.54409 | 121.08171 | 3118 ft | 188 kts | 64° |
| 2026-05-05 15:02 | 14.55040 | 121.09417 | 3503 ft | 205 kts | 62° |
| 2026-05-05 15:03 | 14.55750 | 121.10757 | 3908 ft | 222 kts | 61° |
| 2026-05-05 15:03 | 14.56341 | 121.12299 | 4224 ft | 245 kts | 83° |
| 2026-05-05 15:03 | 14.56168 | 121.14084 | 4674 ft | 263 kts | 110° |
| 2026-05-05 15:03 | 14.55137 | 121.15660 | 5354 ft | 273 kts | 134° |
| 2026-05-05 15:04 | 14.53770 | 121.17019 | 6111 ft | 278 kts | 134° |
| 2026-05-05 15:04 | 14.52376 | 121.18433 | 6690 ft | 280 kts | 134° |
| 2026-05-05 15:04 | 14.50995 | 121.19856 | 6968 ft | 281 kts | 133° |
| 2026-05-05 15:04 | 14.49609 | 121.21291 | 7048 ft | 286 kts | 133° |
| 2026-05-05 15:05 | 14.46381 | 121.23592 | 8675 ft | 290 kts | 167° |
| 2026-05-05 15:05 | 14.44377 | 121.23577 | 9489 ft | 293 kts | 192° |
| 2026-05-05 15:05 | 14.42528 | 121.22687 | 10211 ft | 301 kts | 217° |
| 2026-05-05 15:06 | 14.41023 | 121.21111 | 10683 ft | 315 kts | 227° |
| 2026-05-05 15:06 | 14.39545 | 121.19367 | 11025 ft | 333 kts | 227° |
| 2026-05-05 15:06 | 14.37983 | 121.17529 | 11317 ft | 350 kts | 227° |
| 2026-05-05 15:06 | 14.36318 | 121.15636 | 11650 ft | 363 kts | 223° |
| 2026-05-05 15:07 | 14.34204 | 121.14237 | 12175 ft | 366 kts | 197° |
| 2026-05-05 15:07 | 14.31720 | 121.13745 | 12882 ft | 364 kts | 184° |
| 2026-05-05 15:07 | 14.29188 | 121.13533 | 13477 ft | 368 kts | 183° |
| 2026-05-05 15:07 | 14.26601 | 121.13323 | 14027 ft | 372 kts | 184° |
| 2026-05-05 15:08 | 14.24013 | 121.13070 | 14597 ft | 376 kts | 185° |
| 2026-05-05 15:08 | 14.21404 | 121.12778 | 15122 ft | 379 kts | 185° |
| 2026-05-05 15:08 | 14.18767 | 121.12457 | 15650 ft | 383 kts | 186° |
| 2026-05-05 15:08 | 14.16114 | 121.12117 | 16169 ft | 386 kts | 186° |
| 2026-05-05 15:09 | 14.13442 | 121.11766 | 16673 ft | 388 kts | 186° |
| 2026-05-05 15:09 | 14.10754 | 121.11407 | 17163 ft | 391 kts | 186° |
| 2026-05-05 15:09 | 14.08027 | 121.11041 | 17644 ft | 394 kts | 187° |
| 2026-05-05 15:09 | 14.05301 | 121.10674 | 18123 ft | 396 kts | 187° |
| 2026-05-05 15:10 | 14.02562 | 121.10303 | 18603 ft | 398 kts | 187° |
| 2026-05-05 15:10 | 13.99812 | 121.09932 | 19075 ft | 400 kts | 187° |
| 2026-05-05 15:10 | 13.97042 | 121.09557 | 19545 ft | 402 kts | 187° |
| 2026-05-05 15:10 | 13.94262 | 121.09182 | 20010 ft | 404 kts | 186° |
| 2026-05-05 15:11 | 13.91464 | 121.08803 | 20462 ft | 406 kts | 186° |
| 2026-05-05 15:11 | 13.88639 | 121.08422 | 20925 ft | 408 kts | 186° |
| 2026-05-05 15:11 | 13.85814 | 121.08041 | 21366 ft | 410 kts | 186° |
| 2026-05-05 15:11 | 13.82979 | 121.07658 | 21806 ft | 412 kts | 186° |
| 2026-05-05 15:12 | 13.80128 | 121.07274 | 22223 ft | 415 kts | 186° |
| 2026-05-05 15:12 | 13.77247 | 121.06887 | 22581 ft | 419 kts | 186° |
| 2026-05-05 15:12 | 13.74342 | 121.06498 | 22965 ft | 423 kts | 186° |
| 2026-05-05 15:12 | 13.71418 | 121.06106 | 23359 ft | 426 kts | 186° |
| 2026-05-05 15:13 | 13.69441 | 121.05840 | 23634 ft | 427 kts | 187° |
| 2026-05-05 15:13 | 13.65488 | 121.05310 | 24178 ft | 431 kts | 187° |
| 2026-05-05 15:13 | 13.62509 | 121.04910 | 24572 ft | 433 kts | 187° |
| 2026-05-05 15:13 | 13.59504 | 121.04506 | 24966 ft | 435 kts | 187° |
| 2026-05-05 15:14 | 13.56493 | 121.04102 | 25352 ft | 438 kts | 187° |
| 2026-05-05 15:14 | 13.53461 | 121.03773 | 25722 ft | 440 kts | 181° |
| 2026-05-05 15:14 | 13.50419 | 121.04087 | 26073 ft | 442 kts | 167° |
| 2026-05-05 15:14 | 13.47517 | 121.05207 | 26433 ft | 445 kts | 152° |
| 2026-05-05 15:15 | 13.44908 | 121.06922 | 26799 ft | 447 kts | 146° |
| 2026-05-05 15:15 | 13.42348 | 121.08744 | 26949 ft | 449 kts | 146° |
| 2026-05-05 15:15 | 13.39787 | 121.10577 | 26955 ft | 449 kts | 146° |
| 2026-05-05 15:15 | 13.37215 | 121.12402 | 26963 ft | 449 kts | 146° |
| 2026-05-05 15:16 | 13.34642 | 121.14213 | 26971 ft | 449 kts | 146° |
| 2026-05-05 15:16 | 13.32062 | 121.16018 | 26976 ft | 449 kts | 146° |
| 2026-05-05 15:16 | 13.29463 | 121.17836 | 26977 ft | 449 kts | 146° |
| 2026-05-05 15:16 | 13.26889 | 121.19638 | 26972 ft | 449 kts | 146° |
| 2026-05-05 15:17 | 13.24313 | 121.21445 | 26962 ft | 449 kts | 146° |
| 2026-05-05 15:17 | 13.21733 | 121.23254 | 26945 ft | 449 kts | 146° |
| 2026-05-05 15:17 | 13.19157 | 121.25061 | 26932 ft | 449 kts | 146° |
| 2026-05-05 15:17 | 13.16584 | 121.26865 | 26931 ft | 449 kts | 146° |
| 2026-05-05 15:18 | 13.14007 | 121.28671 | 26934 ft | 449 kts | 146° |
| 2026-05-05 15:18 | 13.11408 | 121.30491 | 26937 ft | 449 kts | 146° |
| 2026-05-05 15:18 | 13.08831 | 121.32296 | 26939 ft | 449 kts | 146° |
| 2026-05-05 15:18 | 13.06254 | 121.34099 | 26939 ft | 449 kts | 146° |
| 2026-05-05 15:19 | 13.03674 | 121.35905 | 26941 ft | 449 kts | 146° |
| 2026-05-05 15:19 | 13.01097 | 121.37708 | 26940 ft | 449 kts | 146° |
| 2026-05-05 15:19 | 12.99369 | 121.38917 | 26936 ft | 449 kts | 146° |
| 2026-05-05 15:19 | 12.96826 | 121.40695 | 26935 ft | 449 kts | 146° |
| 2026-05-05 15:20 | 12.93348 | 121.43127 | 26928 ft | 449 kts | 146° |
| 2026-05-05 15:20 | 12.90773 | 121.44926 | 26919 ft | 449 kts | 146° |
| 2026-05-05 15:20 | 12.88197 | 121.46727 | 26916 ft | 449 kts | 146° |
| 2026-05-05 15:20 | 12.85616 | 121.48531 | 26911 ft | 448 kts | 146° |
| 2026-05-05 15:21 | 12.83037 | 121.50333 | 26904 ft | 448 kts | 146° |
| 2026-05-05 15:21 | 12.80464 | 121.52130 | 26896 ft | 448 kts | 146° |
| 2026-05-05 15:21 | 12.77882 | 121.53933 | 26892 ft | 448 kts | 146° |
| 2026-05-05 15:21 | 12.75292 | 121.55741 | 26892 ft | 448 kts | 146° |
| 2026-05-05 15:22 | 12.72721 | 121.57537 | 26889 ft | 448 kts | 146° |
| 2026-05-05 15:22 | 12.70142 | 121.59337 | 26888 ft | 448 kts | 146° |
| 2026-05-05 15:22 | 12.67575 | 121.61129 | 26874 ft | 446 kts | 146° |
| 2026-05-05 15:22 | 12.65022 | 121.62908 | 26470 ft | 444 kts | 146° |
| 2026-05-05 15:23 | 12.62463 | 121.64693 | 25503 ft | 449 kts | 146° |
| 2026-05-05 15:23 | 12.59885 | 121.66490 | 24607 ft | 451 kts | 146° |
| 2026-05-05 15:23 | 12.57278 | 121.68306 | 23943 ft | 447 kts | 146° |
| 2026-05-05 15:23 | 12.54723 | 121.70088 | 23342 ft | 442 kts | 146° |
| 2026-05-05 15:24 | 12.52202 | 121.71845 | 22722 ft | 438 kts | 145° |
| 2026-05-05 15:24 | 12.49703 | 121.73588 | 22124 ft | 433 kts | 145° |
| 2026-05-05 15:24 | 12.47229 | 121.75314 | 21535 ft | 429 kts | 145° |
| 2026-05-05 15:24 | 12.44781 | 121.77023 | 20956 ft | 425 kts | 145° |
| 2026-05-05 15:25 | 12.42351 | 121.78717 | 20373 ft | 421 kts | 145° |
| 2026-05-05 15:25 | 12.40729 | 121.79845 | 19983 ft | 419 kts | 145° |
| 2026-05-05 15:25 | 12.39926 | 121.80403 | 19793 ft | 417 kts | 145° |
| 2026-05-05 15:25 | 12.39138 | 121.80951 | 19606 ft | 416 kts | 145° |
| 2026-05-05 15:26 | 12.29251 | 121.81618 | 18011 ft | 396 kts | 194° |
| 2026-05-05 15:26 | 12.26622 | 121.80867 | 17645 ft | 388 kts | 193° |
| 2026-05-05 15:26 | 12.24029 | 121.80182 | 17250 ft | 382 kts | 192° |
| 2026-05-05 15:27 | 12.21444 | 121.79548 | 16863 ft | 376 kts | 191° |
| 2026-05-05 15:27 | 12.18911 | 121.78962 | 16486 ft | 371 kts | 191° |
| 2026-05-05 15:27 | 12.16408 | 121.78399 | 16118 ft | 365 kts | 190° |
| 2026-05-05 15:27 | 12.13951 | 121.77856 | 15869 ft | 355 kts | 190° |
| 2026-05-05 15:28 | 12.11585 | 121.77339 | 15849 ft | 339 kts | 190° |
| 2026-05-05 15:28 | 12.09318 | 121.76845 | 15849 ft | 328 kts | 190° |
| 2026-05-05 15:28 | 12.07078 | 121.76361 | 15850 ft | 328 kts | 190° |
| 2026-05-05 15:28 | 12.04847 | 121.75879 | 15850 ft | 328 kts | 190° |
| 2026-05-05 15:29 | 12.02597 | 121.75394 | 15848 ft | 328 kts | 190° |
| 2026-05-05 15:29 | 12.00365 | 121.74912 | 15846 ft | 328 kts | 190° |
| 2026-05-05 15:29 | 11.98144 | 121.74433 | 15772 ft | 324 kts | 190° |
| 2026-05-05 15:29 | 11.95949 | 121.73958 | 15363 ft | 322 kts | 190° |
| 2026-05-05 15:30 | 11.93752 | 121.73484 | 14900 ft | 323 kts | 190° |
| 2026-05-05 15:30 | 11.91556 | 121.73003 | 14561 ft | 320 kts | 190° |
| 2026-05-05 15:30 | 11.89443 | 121.72353 | 14282 ft | 317 kts | 208° |
| 2026-05-05 15:30 | 11.87840 | 121.70850 | 14072 ft | 312 kts | 239° |
| 2026-05-05 15:31 | 11.87223 | 121.68789 | 13883 ft | 303 kts | 271° |
| 2026-05-05 15:31 | 11.87267 | 121.68092 | 13822 ft | 300 kts | 282° |
| 2026-05-05 15:31 | 11.87625 | 121.66738 | 13724 ft | 292 kts | 290° |
| 2026-05-05 15:31 | 11.87841 | 121.66084 | 13658 ft | 290 kts | 290° |
| 2026-05-05 15:32 | 11.91171 | 121.62318 | 13076 ft | 267 kts | 332° |
| 2026-05-05 15:32 | 11.92777 | 121.61361 | 12741 ft | 267 kts | 332° |
| 2026-05-05 15:32 | 11.94427 | 121.60482 | 12417 ft | 264 kts | 347° |
| 2026-05-05 15:32 | 11.96209 | 121.60349 | 12122 ft | 255 kts | 14° |
| 2026-05-05 15:33 | 11.97836 | 121.60970 | 11823 ft | 249 kts | 36° |
| 2026-05-05 15:33 | 11.99079 | 121.62155 | 11495 ft | 245 kts | 57° |
| 2026-05-05 15:33 | 11.99784 | 121.63710 | 11176 ft | 242 kts | 79° |
| 2026-05-05 15:33 | 11.99862 | 121.65405 | 10864 ft | 241 kts | 99° |
| 2026-05-05 15:34 | 11.99321 | 121.67010 | 10545 ft | 242 kts | 120° |
| 2026-05-05 15:34 | 11.98211 | 121.68303 | 10233 ft | 243 kts | 141° |
| 2026-05-05 15:34 | 11.96801 | 121.69255 | 9929 ft | 244 kts | 145° |
| 2026-05-05 15:34 | 11.95364 | 121.70173 | 9609 ft | 243 kts | 146° |
| 2026-05-05 15:35 | 11.93934 | 121.71088 | 9310 ft | 242 kts | 146° |
| 2026-05-05 15:35 | 11.92513 | 121.72001 | 9018 ft | 241 kts | 146° |
| 2026-05-05 15:35 | 11.91100 | 121.72912 | 8713 ft | 240 kts | 146° |
| 2026-05-05 15:35 | 11.89573 | 121.73586 | 8397 ft | 243 kts | 168° |
| 2026-05-05 15:36 | 11.87875 | 121.73548 | 8117 ft | 245 kts | 192° |
| 2026-05-05 15:36 | 11.86810 | 121.73151 | 7916 ft | 248 kts | 206° |
| 2026-05-05 15:36 | 11.86313 | 121.72846 | 7810 ft | 249 kts | 214° |
| 2026-05-05 15:36 | 11.84485 | 121.69918 | 7177 ft | 253 kts | 262° |
| 2026-05-05 15:37 | 11.84543 | 121.68146 | 6873 ft | 252 kts | 286° |
| 2026-05-05 15:37 | 11.85263 | 121.66548 | 6574 ft | 248 kts | 310° |
| 2026-05-05 15:37 | 11.86505 | 121.65375 | 6279 ft | 242 kts | 330° |
| 2026-05-05 15:37 | 11.87462 | 121.64761 | 6071 ft | 242 kts | 332° |
| 2026-05-05 15:38 | 11.89522 | 121.63985 | 5661 ft | 234 kts | 2° |
| 2026-05-05 15:38 | 11.91095 | 121.64206 | 5400 ft | 226 kts | 23° |
| 2026-05-05 15:38 | 11.92455 | 121.64954 | 5108 ft | 221 kts | 43° |
| 2026-05-05 15:38 | 11.93465 | 121.66105 | 4816 ft | 217 kts | 61° |
| 2026-05-05 15:39 | 11.94030 | 121.67511 | 4528 ft | 216 kts | 79° |
| 2026-05-05 15:39 | 11.94104 | 121.69021 | 4309 ft | 213 kts | 97° |
| 2026-05-05 15:39 | 11.93670 | 121.70487 | 4250 ft | 218 kts | 115° |
| 2026-05-05 15:39 | 11.92768 | 121.71734 | 4222 ft | 221 kts | 134° |
| 2026-05-05 15:40 | 11.91513 | 121.72671 | 4209 ft | 225 kts | 143° |
| 2026-05-05 15:40 | 11.90168 | 121.73499 | 4129 ft | 227 kts | 148° |
| 2026-05-05 15:40 | 11.88762 | 121.74197 | 4062 ft | 220 kts | 152° |
| 2026-05-05 15:40 | 11.87417 | 121.74842 | 4011 ft | 208 kts | 150° |
| 2026-05-05 15:41 | 11.86171 | 121.75471 | 4041 ft | 191 kts | 149° |
| 2026-05-05 15:41 | 11.85022 | 121.76055 | 3972 ft | 174 kts | 148° |
| 2026-05-05 15:41 | 11.84173 | 121.76802 | 3818 ft | 153 kts | 111° |
| 2026-05-05 15:41 | 11.84058 | 121.77817 | 3693 ft | 145 kts | 81° |
| 2026-05-05 15:42 | 11.84305 | 121.78783 | 3502 ft | 139 kts | 70° |
| 2026-05-05 15:42 | 11.84666 | 121.79685 | 3300 ft | 137 kts | 66° |
| 2026-05-05 15:42 | 11.85064 | 121.80562 | 3116 ft | 136 kts | 65° |
| 2026-05-05 15:42 | 11.85478 | 121.81427 | 2957 ft | 136 kts | 64° |
| 2026-05-05 15:43 | 11.85902 | 121.82291 | 2938 ft | 136 kts | 64° |
| 2026-05-05 15:43 | 11.86329 | 121.83149 | 2931 ft | 136 kts | 64° |
| 2026-05-05 15:43 | 11.86754 | 121.83999 | 2897 ft | 133 kts | 64° |
| 2026-05-05 15:43 | 11.87169 | 121.84826 | 2602 ft | 132 kts | 64° |
| 2026-05-05 15:44 | 11.87584 | 121.85655 | 2190 ft | 133 kts | 64° |
| 2026-05-05 15:44 | 11.87998 | 121.86486 | 1883 ft | 133 kts | 64° |
| 2026-05-05 15:44 | 11.88417 | 121.87324 | 1654 ft | 133 kts | 63° |
| 2026-05-05 15:44 | 11.88839 | 121.88167 | 1470 ft | 132 kts | 64° |
| 2026-05-05 15:45 | 11.89256 | 121.89004 | 1297 ft | 133 kts | 64° |
| 2026-05-05 15:45 | 11.89392 | 121.89277 | 1231 ft | 132 kts | 64° |
| 2026-05-05 15:45 | 11.89671 | 121.89836 | 1106 ft | 132 kts | 63° |
| 2026-05-05 15:45 | 11.89948 | 121.90386 | 985 ft | 132 kts | 63° |
| 2026-05-05 15:46 | 11.90238 | 121.90937 | 861 ft | 131 kts | 62° |
| 2026-05-05 15:46 | 11.91258 | 121.92827 | 514 ft | 131 kts | 66° |
| 2026-05-05 15:46 | 11.91743 | 121.93957 | 278 ft | 130 kts | 67° |
| 2026-05-05 15:46 | 11.92154 | 121.94772 | 106 ft | 130 kts | 67° |
| 2026-05-05 15:47 | 11.92545 | 121.95568 | -2 ft | 108 kts | 63° |
| 2026-05-05 15:47 | 11.92705 | 121.95903 | -2 ft | 50 kts | 63° |
| 2026-05-05 15:47 | 11.92885 | 121.96267 | -2 ft | 37 kts | 62° |
| 2026-05-05 15:47 | 11.92937 | 121.96442 | -2 ft | 18 kts | 108° |
| 2026-05-05 15:48 | 11.92853 | 121.96512 | -2 ft | 14 kts | 155° |
| 2026-05-05 15:48 | 11.92778 | 121.96513 | -2 ft | 11 kts | 224° |
| 2026-05-05 15:48 | 11.92746 | 121.96467 | -2 ft | 5 kts | 202° |
| 2026-05-05 15:48 | 11.92719 | 121.96471 | -1 ft | 4 kts | 154° |
| 2026-05-05 15:49 | 11.92710 | 121.96476 | -1 ft | 0 kts | 153° |
| 2026-05-05 15:49 | 11.92707 | 121.96477 | 0 ft | 0 kts | 153° |